Time;durP1;ratioP1;P1;durP2;ratioP2;P2;SDS_P1;SDS_P2;PMS_P1;PMS_P2;Temp;Humidity;BMP_temperature;BMP_pressure;BME280_temperature;BME280_humidity;BME280_pressure;Samples;Min_cycle;Max_cycle;Signal;HPM_P1;HPM_P2
2020/12/10 00:00:44;;;;;;;15.23;8.80;;;;;;;-2.94;57.67;101589.70;1722464;82;21165;-44
2020/12/10 00:03:11;;;;;;;18.70;7.90;;;;;;;-2.95;57.64;101588.36;1724030;82;21882;-39
2020/12/10 00:05:39;;;;;;;12.00;6.97;;;;;;;-2.94;57.59;101585.79;1726030;82;21471;-40
2020/12/10 00:08:06;;;;;;;16.07;8.87;;;;;;;-2.92;57.63;101586.70;1726756;82;21644;-39
2020/12/10 00:10:34;;;;;;;13.67;7.93;;;;;;;-2.90;57.66;101580.17;1713227;83;21617;-38
2020/12/10 00:13:02;;;;;;;14.57;9.10;;;;;;;-2.89;57.48;101582.81;1725291;82;21141;-38
2020/12/10 00:15:30;;;;;;;11.67;7.13;;;;;;;-2.86;57.40;101576.76;1691869;83;21665;-39
2020/12/10 00:17:58;;;;;;;14.43;8.30;;;;;;;-2.83;57.25;101572.87;1696803;83;21143;-42
2020/12/10 00:20:26;;;;;;;17.90;8.00;;;;;;;-2.84;57.13;101562.87;1688992;83;21154;-44
2020/12/10 00:22:53;;;;;;;11.73;6.87;;;;;;;-2.90;57.05;101556.67;1751708;81;21145;-44
2020/12/10 00:25:21;;;;;;;13.60;7.80;;;;;;;-2.96;57.28;101554.86;1753397;80;21138;-40
2020/12/10 00:27:48;;;;;;;13.87;8.30;;;;;;;-2.97;57.40;101556.13;1755149;81;21169;-37
2020/12/10 00:30:16;;;;;;;15.00;8.77;;;;;;;-2.98;57.38;101553.95;1754285;81;21161;-39
2020/12/10 00:32:43;;;;;;;13.80;8.63;;;;;;;-2.99;57.42;101561.35;1754131;81;21148;-41
2020/12/10 00:35:11;;;;;;;13.20;8.33;;;;;;;-2.97;57.44;101562.26;1751708;80;21169;-41
2020/12/10 00:37:38;;;;;;;13.37;8.47;;;;;;;-2.98;57.52;101551.34;1750546;81;21138;-40
2020/12/10 00:40:07;;;;;;;14.37;8.47;;;;;;;-2.97;57.58;101547.00;1752505;81;21653;-42
2020/12/10 00:42:35;;;;;;;13.97;7.30;;;;;;;-2.98;57.53;101553.95;1751104;81;21149;-43
2020/12/10 00:45:03;;;;;;;12.87;7.67;;;;;;;-2.98;57.56;101550.05;1753571;81;21148;-41
2020/12/10 00:47:31;;;;;;;13.47;7.03;;;;;;;-2.99;57.62;101536.98;1745336;81;21637;-41
2020/12/10 00:50:00;;;;;;;12.63;7.43;;;;;;;-2.99;57.69;101535.25;1753628;81;21192;-40
2020/12/10 00:52:29;;;;;;;12.57;6.83;;;;;;;-2.97;57.64;101532.64;1752392;81;21182;-42
2020/12/10 00:54:59;;;;;;;11.43;7.25;;;;;;;-2.97;57.61;101539.16;1753815;81;21153;-40
2020/12/10 00:57:29;;;;;;;12.40;6.80;;;;;;;-2.99;57.63;101531.33;1754778;80;21102;-45
2020/12/10 00:59:57;;;;;;;13.37;8.13;;;;;;;-3.01;57.70;101523.03;1747583;81;21149;-44
2020/12/10 01:02:25;;;;;;;11.90;7.53;;;;;;;-3.02;57.73;101526.08;1751686;80;21593;-40
2020/12/10 01:04:53;;;;;;;14.47;7.07;;;;;;;-3.02;57.70;101534.31;1747300;81;21136;-43
2020/12/10 01:07:20;;;;;;;13.53;6.97;;;;;;;-3.05;57.71;101537.36;1752295;81;21143;-39
2020/12/10 01:09:48;;;;;;;11.30;7.70;;;;;;;-3.07;57.66;101540.36;1751958;81;21114;-43
2020/12/10 01:12:16;;;;;;;13.67;8.03;;;;;;;-3.10;57.83;101543.34;1752713;81;21145;-42
2020/12/10 01:14:43;;;;;;;10.40;6.77;;;;;;;-3.14;57.86;101551.56;1751080;81;21161;-41
2020/12/10 01:17:11;;;;;;;13.43;6.70;;;;;;;-3.16;57.87;101555.87;1753015;81;21141;-43
2020/12/10 01:19:39;;;;;;;12.37;7.20;;;;;;;-3.17;57.89;101550.22;1746908;81;21153;-41
2020/12/10 01:22:06;;;;;;;12.97;7.33;;;;;;;-3.17;57.99;101544.14;1752957;81;21413;-44
2020/12/10 01:24:36;;;;;;;12.53;6.77;;;;;;;-3.16;58.06;101539.34;1754100;81;21114;-45
2020/12/10 01:27:03;;;;;;;10.83;6.53;;;;;;;-3.17;58.05;101540.22;1751208;81;21129;-42
2020/12/10 01:29:31;;;;;;;10.43;5.73;;;;;;;-3.18;58.20;101535.84;1752580;81;21145;-43
2020/12/10 01:31:58;;;;;;;13.27;6.93;;;;;;;-3.16;58.14;101536.74;1752854;81;21577;-44
2020/12/10 01:34:26;;;;;;;10.23;6.13;;;;;;;-3.15;58.12;101535.47;1750722;81;21648;-42
2020/12/10 01:36:53;;;;;;;14.60;8.13;;;;;;;-3.14;58.11;101523.30;1745220;81;21624;-46
2020/12/10 01:39:21;;;;;;;12.63;6.97;;;;;;;-3.15;58.19;101518.91;1747765;81;22080;-47
2020/12/10 01:41:49;;;;;;;13.80;6.93;;;;;;;-3.13;58.00;101525.03;1751655;81;21141;-43
2020/12/10 01:44:18;;;;;;;9.77;6.23;;;;;;;-3.11;57.94;101529.85;1750799;81;21143;-43
2020/12/10 01:46:45;;;;;;;13.60;6.30;;;;;;;-3.13;57.83;101535.47;1700167;82;21110;-42
2020/12/10 01:49:13;;;;;;;11.30;6.37;;;;;;;-3.13;57.81;101536.34;1751758;81;21141;-40
2020/12/10 01:51:40;;;;;;;12.07;6.33;;;;;;;-3.15;57.77;101536.78;1753635;81;21138;-42
2020/12/10 01:54:08;;;;;;;11.90;6.70;;;;;;;-3.15;57.78;101530.25;1753480;80;21169;-41
2020/12/10 01:56:35;;;;;;;11.07;6.43;;;;;;;-3.14;57.75;101536.34;1749801;81;21103;-43
2020/12/10 01:59:04;;;;;;;11.83;7.30;;;;;;;-3.17;57.72;101524.13;1751767;81;21149;-43
2020/12/10 02:01:33;;;;;;;11.60;6.53;;;;;;;-3.17;57.75;101535.88;1753441;81;21115;-44
2020/12/10 02:04:02;;;;;;;9.93;5.73;;;;;;;-3.17;57.87;101528.48;1753345;81;21652;-42
2020/12/10 02:06:30;;;;;;;10.43;6.23;;;;;;;-3.18;57.84;101525.40;1752419;81;21152;-38
2020/12/10 02:08:57;;;;;;;11.93;6.07;;;;;;;-3.17;57.92;101525.86;1752529;81;21155;-46
2020/12/10 02:11:25;;;;;;;12.63;6.13;;;;;;;-3.18;57.91;101522.78;1753479;81;21153;-39
2020/12/10 02:13:53;;;;;;;11.47;6.03;;;;;;;-3.18;57.90;101526.27;1753941;81;21169;-41
2020/12/10 02:16:20;;;;;;;8.67;5.70;;;;;;;-3.18;57.85;101524.96;1750009;81;21141;-38
2020/12/10 02:18:54;;;;;;;12.30;6.60;;;;;;;-3.19;57.93;101507.56;1752508;81;21144;-39
2020/12/10 02:21:21;;;;;;;10.57;5.77;;;;;;;-3.18;57.95;101509.30;1754052;81;21188;-40
2020/12/10 02:23:55;;;;;;;11.97;6.57;;;;;;;-3.20;57.87;101506.22;1746668;81;21150;-41
2020/12/10 02:26:29;;;;;;;10.43;5.47;;;;;;;-3.20;58.03;101503.21;1751859;81;21121;-39
2020/12/10 02:29:00;;;;;;;7.63;4.90;;;;;;;-3.22;58.03;101506.22;1752958;81;21287;-38
2020/12/10 02:31:31;;;;;;;11.07;5.47;;;;;;;-3.22;57.99;101501.00;1750182;81;21118;-40
2020/12/10 02:34:05;;;;;;;9.63;5.63;;;;;;;-3.23;58.07;101487.48;1750699;81;21530;-39
2020/12/10 02:36:35;;;;;;;8.93;5.23;;;;;;;-3.21;58.11;101491.44;1755672;81;21273;-41
2020/12/10 02:39:06;;;;;;;12.50;5.60;;;;;;;-3.20;58.03;101484.95;1749578;81;21942;-46
2020/12/10 02:41:37;;;;;;;10.48;5.35;;;;;;;-3.19;58.06;101485.38;1750839;81;21871;-46
2020/12/10 02:44:05;;;;;;;10.63;5.33;;;;;;;-3.18;58.03;101491.47;1743035;81;21542;-39
2020/12/10 02:46:33;;;;;;;9.73;5.57;;;;;;;-3.16;57.98;101490.64;1752741;81;21155;-40
2020/12/10 02:49:01;;;;;;;8.93;5.60;;;;;;;-3.16;58.00;101483.23;1748986;81;21141;-40
2020/12/10 02:51:28;;;;;;;11.70;5.43;;;;;;;-3.19;58.03;101473.64;1745343;81;21106;-41
2020/12/10 02:53:57;;;;;;;11.87;5.67;;;;;;;-3.22;58.15;101481.87;1752920;81;21579;-43
2020/12/10 02:56:25;;;;;;;10.77;6.50;;;;;;;-3.24;58.25;101481.83;1748693;81;21577;-38
2020/12/10 02:58:52;;;;;;;10.87;5.97;;;;;;;-3.24;58.32;101471.83;1748837;80;21565;-44
2020/12/10 03:01:20;;;;;;;11.10;5.60;;;;;;;-3.22;58.21;101471.42;1749787;81;21596;-39
2020/12/10 03:03:47;;;;;;;10.70;6.57;;;;;;;-3.20;58.24;101487.95;1746240;81;21279;-41
2020/12/10 03:06:14;;;;;;;11.07;5.93;;;;;;;-3.22;58.24;101480.56;1748844;81;21587;-41
2020/12/10 03:08:42;;;;;;;7.43;4.93;;;;;;;-3.24;58.40;101472.70;1749241;81;21129;-43
2020/12/10 03:11:09;;;;;;;13.40;5.97;;;;;;;-3.22;58.53;101480.56;1751834;81;21154;-38
2020/12/10 03:13:38;;;;;;;11.97;6.47;;;;;;;-3.20;58.52;101476.21;1745383;81;21122;-40
2020/12/10 03:16:05;;;;;;;10.27;5.80;;;;;;;-3.19;58.73;101474.07;1750779;81;21136;-42
2020/12/10 03:18:33;;;;;;;9.17;5.33;;;;;;;-3.18;58.68;101478.42;1751417;81;21589;-45
2020/12/10 03:21:01;;;;;;;9.50;5.93;;;;;;;-3.18;58.69;101480.59;1750873;80;21149;-42
2020/12/10 03:23:28;;;;;;;9.67;5.87;;;;;;;-3.17;58.85;101484.98;1743040;81;21138;-43
2020/12/10 03:25:56;;;;;;;9.13;5.80;;;;;;;-3.17;58.82;101478.45;1740625;81;21170;-42
2020/12/10 03:28:24;;;;;;;13.60;5.90;;;;;;;-3.18;58.90;101472.77;1745501;82;21142;-40
2020/12/10 03:30:51;;;;;;;9.47;5.27;;;;;;;-3.17;59.01;101465.41;1745722;81;21139;-43
2020/12/10 03:33:19;;;;;;;10.80;6.23;;;;;;;-3.14;59.04;101465.44;1744563;81;21177;-42
2020/12/10 03:35:46;;;;;;;11.97;5.87;;;;;;;-3.13;59.08;101463.70;1743770;81;21169;-44
2020/12/10 03:38:13;;;;;;;12.50;6.37;;;;;;;-3.11;59.07;101457.64;1742610;81;21141;-43
2020/12/10 03:40:41;;;;;;;10.50;6.47;;;;;;;-3.11;58.90;101460.25;1736303;81;21843;-40
2020/12/10 03:43:09;;;;;;;11.73;5.93;;;;;;;-3.11;58.99;101461.56;1739510;81;21158;-39
2020/12/10 03:45:36;;;;;;;12.00;6.70;;;;;;;-3.07;58.96;101454.66;1710468;83;21179;-47
2020/12/10 03:48:04;;;;;;;11.43;6.10;;;;;;;-3.03;58.93;101458.17;1743007;81;21146;-41
2020/12/10 03:50:31;;;;;;;10.03;5.97;;;;;;;-3.00;58.93;101455.16;1745750;81;21134;-40
2020/12/10 03:52:59;;;;;;;8.30;5.70;;;;;;;-2.99;58.96;101450.41;1740955;81;21146;-42
2020/12/10 03:55:27;;;;;;;11.00;6.80;;;;;;;-2.98;58.86;101453.89;1741483;81;21134;-43
2020/12/10 03:57:55;;;;;;;9.43;6.70;;;;;;;-2.96;58.93;101454.35;1742552;81;21434;-43
2020/12/10 04:00:22;;;;;;;10.10;5.73;;;;;;;-2.96;59.03;101445.66;1705106;83;21464;-42
2020/12/10 04:02:50;;;;;;;9.10;6.17;;;;;;;-2.96;59.13;101441.30;1740882;81;21155;-39
2020/12/10 04:05:17;;;;;;;7.83;4.80;;;;;;;-2.94;59.15;101439.59;1748880;81;21190;-41
2020/12/10 04:07:44;;;;;;;12.03;6.40;;;;;;;-2.90;59.35;101437.88;1741957;81;21116;-43
2020/12/10 04:10:12;;;;;;;8.57;5.30;;;;;;;-2.90;59.37;101427.03;1744644;82;21130;-38
2020/12/10 04:12:40;;;;;;;9.20;5.60;;;;;;;-2.85;59.44;101420.53;1743010;81;21114;-41
2020/12/10 04:15:07;;;;;;;12.37;5.90;;;;;;;-2.84;59.52;101415.34;1742971;81;21110;-41
2020/12/10 04:17:35;;;;;;;13.33;6.33;;;;;;;-2.83;59.62;101421.44;1743996;81;21569;-42
2020/12/10 04:20:03;;;;;;;8.00;4.40;;;;;;;-2.81;59.76;101418.85;1739678;81;21161;-42
2020/12/10 04:22:31;;;;;;;11.23;5.27;;;;;;;-2.75;59.82;101420.21;1703890;83;21162;-43
2020/12/10 04:24:58;;;;;;;13.40;5.50;;;;;;;-2.69;59.82;101416.37;1721322;82;21127;-42
2020/12/10 04:27:26;;;;;;;8.80;5.43;;;;;;;-2.64;59.68;101409.03;1720275;82;21139;-43
2020/12/10 04:29:53;;;;;;;9.60;6.43;;;;;;;-2.58;59.62;101420.40;1725645;82;21146;-40
2020/12/10 04:32:21;;;;;;;9.77;5.23;;;;;;;-2.54;59.54;101420.45;1725254;82;21158;-41
2020/12/10 04:34:50;;;;;;;8.77;5.93;;;;;;;-2.50;59.51;101419.59;1721094;82;21653;-41
2020/12/10 04:37:17;;;;;;;8.70;5.23;;;;;;;-2.49;59.27;101420.06;1721731;82;21141;-42
2020/12/10 04:39:46;;;;;;;11.00;5.57;;;;;;;-2.47;59.29;101422.67;1723366;82;21110;-44
2020/12/10 04:42:16;;;;;;;10.60;5.97;;;;;;;-2.46;59.34;101414.86;1717821;82;21191;-43
2020/12/10 04:44:46;;;;;;;9.17;5.80;;;;;;;-2.43;59.28;101404.44;1723015;82;21861;-44
2020/12/10 04:47:13;;;;;;;8.30;5.10;;;;;;;-2.43;59.32;101403.56;1719908;82;21443;-44
2020/12/10 04:49:41;;;;;;;8.30;5.70;;;;;;;-2.44;59.36;101414.45;1717438;82;21165;-44
2020/12/10 04:52:09;;;;;;;9.57;6.43;;;;;;;-2.42;59.30;101406.61;1719653;82;21143;-40
2020/12/10 04:54:38;;;;;;;12.97;5.80;;;;;;;-2.47;59.32;101409.20;1683968;84;21136;-41
2020/12/10 04:57:08;;;;;;;8.93;5.70;;;;;;;-2.48;59.46;101407.44;1662450;85;22219;-42
2020/12/10 04:59:36;;;;;;;9.00;5.10;;;;;;;-2.46;59.58;101407.46;1718286;82;21150;-42
2020/12/10 05:02:09;;;;;;;10.13;6.10;;;;;;;-2.47;59.52;101403.08;1720248;82;21462;-39
2020/12/10 05:04:38;;;;;;;10.10;6.30;;;;;;;-2.50;59.62;101409.15;1717255;82;21146;-40
2020/12/10 05:07:06;;;;;;;14.33;5.73;;;;;;;-2.49;59.61;101400.91;1719285;82;21622;-42
2020/12/10 05:09:34;;;;;;;8.53;5.23;;;;;;;-2.50;59.82;101410.89;1685102;83;21154;-38
2020/12/10 05:12:01;;;;;;;11.00;6.07;;;;;;;-2.46;59.98;101417.91;1715463;82;21175;-39
2020/12/10 05:14:47;;;;;;;10.10;5.80;;;;;;;-2.42;59.88;101420.58;1720739;82;21157;-40
2020/12/10 05:17:16;;;;;;;10.63;6.43;;;;;;;-2.40;59.90;101409.68;1713177;82;21133;-39
2020/12/10 05:19:44;;;;;;;9.43;5.70;;;;;;;-2.38;59.77;101427.13;1717850;82;21182;-43
2020/12/10 05:22:11;;;;;;;9.50;5.50;;;;;;;-2.34;59.57;101423.66;1689806;82;21161;-42
2020/12/10 05:24:39;;;;;;;9.40;5.47;;;;;;;-2.30;59.35;101426.77;1752596;80;21137;-42
2020/12/10 05:27:24;;;;;;;12.20;6.23;;;;;;;-2.31;59.27;101428.94;1751619;81;21146;-42
2020/12/10 05:29:52;;;;;;;9.77;6.40;;;;;;;-2.31;59.25;101431.56;1751191;81;21530;-43
2020/12/10 05:32:40;;;;;;;9.23;5.63;;;;;;;-2.34;59.21;101431.09;1751879;81;21141;-40
2020/12/10 05:35:18;;;;;;;11.17;6.87;;;;;;;-2.33;59.31;101430.23;1753160;81;21161;-40
2020/12/10 05:37:46;;;;;;;9.70;6.47;;;;;;;-2.30;59.37;101431.99;1749798;80;21118;-41
2020/12/10 05:40:13;;;;;;;15.03;6.60;;;;;;;-2.33;59.33;101441.11;1749548;81;21291;-42
2020/12/10 05:42:44;;;;;;;11.00;5.87;;;;;;;-2.36;59.52;101439.78;1751016;81;21138;-41
2020/12/10 05:45:19;;;;;;;10.00;5.90;;;;;;;-2.34;59.83;101436.73;1752131;80;21109;-36
2020/12/10 05:47:55;;;;;;;12.70;6.40;;;;;;;-2.29;59.90;101433.77;1744894;80;21160;-42
2020/12/10 05:50:25;;;;;;;9.70;5.53;;;;;;;-2.23;60.06;101434.67;1744450;81;21169;-43
2020/12/10 05:53:10;;;;;;;10.28;6.30;;;;;;;-2.19;60.05;101432.98;1750030;80;21175;-37
2020/12/10 05:58:20;;;;;;;15.08;8.58;;;;;;;-2.05;60.26;101425.23;1749393;79;28059;-42
2020/12/10 06:00:47;;;;;;;14.18;9.23;;;;;;;-2.07;60.38;101423.91;1732895;80;28530;-39
2020/12/10 06:03:15;;;;;;;10.53;7.00;;;;;;;-1.94;60.20;101420.09;1744596;80;21141;-40
2020/12/10 06:05:43;;;;;;;10.33;6.23;;;;;;;-1.82;60.05;101406.67;1741299;80;21157;-44
2020/12/10 06:08:10;;;;;;;12.03;7.00;;;;;;;-1.80;59.97;101407.56;1736355;82;21141;-44
2020/12/10 06:10:41;;;;;;;9.17;5.80;;;;;;;-1.79;59.92;101404.09;1742693;80;21271;-40
2020/12/10 06:13:10;;;;;;;9.48;5.65;;;;;;;-1.79;59.93;101406.72;1744296;80;21592;-41
2020/12/10 06:15:38;;;;;;;11.37;6.73;;;;;;;-1.77;60.08;101406.70;1741917;80;21137;-38
2020/12/10 06:18:11;;;;;;;12.53;6.43;;;;;;;-1.77;60.04;101404.09;1745347;80;21145;-42
2020/12/10 06:20:42;;;;;;;10.10;5.83;;;;;;;-1.74;60.07;101404.10;1744200;82;21134;-40
2020/12/10 06:23:31;;;;;;;10.58;6.35;;;;;;;-1.73;60.08;101403.26;1745324;80;21140;-43
2020/12/10 06:26:26;;;;;;;13.20;7.60;;;;;;;-1.72;60.01;101408.92;1745244;80;21150;-41
2020/12/10 06:29:18;;;;;;;10.80;6.87;;;;;;;-1.77;59.90;101406.27;1738387;80;21125;-40
2020/12/10 06:32:14;;;;;;;10.53;6.20;;;;;;;-1.79;59.99;101414.56;1744409;80;21153;-40
2020/12/10 06:34:57;;;;;;;13.47;6.40;;;;;;;-1.79;60.19;101403.20;1743804;82;21142;-41
2020/12/10 06:37:29;;;;;;;11.60;6.90;;;;;;;-1.74;59.97;101405.41;1738613;82;21679;-42
2020/12/10 06:40:06;;;;;;;11.70;6.60;;;;;;;-1.71;59.85;101401.53;1746450;80;21126;-40
2020/12/10 06:42:47;;;;;;;10.50;7.60;;;;;;;-1.70;59.93;101395.86;1734487;80;21143;-39
2020/12/10 06:45:32;;;;;;;11.55;6.58;;;;;;;-1.70;59.90;101386.27;1746754;80;21628;-38
2020/12/10 06:48:07;;;;;;;14.03;6.57;;;;;;;-1.68;59.89;101384.54;1753943;80;21106;-42
2020/12/10 06:50:37;;;;;;;12.83;6.53;;;;;;;-1.65;60.05;101390.22;1736132;82;21137;-39
2020/12/10 06:53:21;;;;;;;13.75;7.42;;;;;;;-1.67;59.95;101390.20;1722767;82;21190;-43
2020/12/10 06:59:01;;;;;;;13.90;7.30;;;;;;;-1.59;59.73;101383.70;1800592;78;23094;-41
2020/12/10 07:01:46;;;;;;;11.68;6.75;;;;;;;-1.64;59.68;101388.94;1773274;79;21745;-45
2020/12/10 07:04:49;;;;;;;12.93;7.97;;;;;;;-1.64;59.60;101388.94;1710466;82;21187;-40
2020/12/10 07:07:22;;;;;;;10.57;7.10;;;;;;;-1.65;59.49;101396.77;1760885;80;21152;-46
2020/12/10 07:10:01;;;;;;;12.33;7.83;;;;;;;-1.66;59.73;101389.36;1741376;80;21617;-42
2020/12/10 07:12:34;;;;;;;11.07;7.43;;;;;;;-1.66;59.91;101386.74;1744763;80;21853;-43
2020/12/10 07:15:25;;;;;;;11.93;6.87;;;;;;;-1.66;60.14;101385.84;1759851;80;21126;-43
2020/12/10 07:18:06;;;;;;;12.83;7.27;;;;;;;-1.64;60.08;101391.55;1617851;88;22360;-40
2020/12/10 07:20:34;;;;;;;14.33;7.93;;;;;;;-1.64;60.15;101382.40;1608893;87;21543;-42
2020/12/10 07:23:02;;;;;;;13.57;7.97;;;;;;;-1.63;60.08;101384.58;1614692;88;21414;-43
2020/12/10 07:25:30;;;;;;;11.30;6.57;;;;;;;-1.62;60.15;101384.56;1611343;88;21200;-40
2020/12/10 07:27:57;;;;;;;11.17;7.60;;;;;;;-1.62;60.32;101373.23;1615027;87;21221;-40
2020/12/10 07:30:27;;;;;;;10.47;6.83;;;;;;;-1.63;60.26;101373.67;1617838;87;21205;-40
2020/12/10 07:32:55;;;;;;;10.83;6.53;;;;;;;-1.63;60.20;101372.36;1614299;87;21248;-43
2020/12/10 07:35:35;;;;;;;14.50;7.90;;;;;;;-1.64;60.09;101371.94;1615750;87;21232;-45
2020/12/10 07:38:13;;;;;;;12.77;7.67;;;;;;;-1.63;60.17;101380.65;1614788;87;21225;-40
2020/12/10 07:40:41;;;;;;;11.93;6.83;;;;;;;-1.64;60.30;101382.80;1617486;87;21183;-40
2020/12/10 07:43:10;;;;;;;13.43;7.97;;;;;;;-1.65;60.32;101364.94;1615877;87;21229;-47
2020/12/10 07:45:37;;;;;;;13.37;7.70;;;;;;;-1.63;60.30;101371.05;1613445;88;21225;-42
2020/12/10 07:48:06;;;;;;;11.97;7.40;;;;;;;-1.63;60.33;101367.57;1610670;87;21177;-43
2020/12/10 07:50:36;;;;;;;13.67;7.20;;;;;;;-1.63;60.30;101369.75;1611292;87;21193;-44
2020/12/10 07:53:07;;;;;;;14.33;7.43;;;;;;;-1.61;60.14;101372.38;1613378;87;21239;-42
2020/12/10 07:55:36;;;;;;;14.37;7.83;;;;;;;-1.59;59.99;101364.08;1607568;87;21233;-44
2020/12/10 07:58:27;;;;;;;12.80;7.00;;;;;;;-1.58;59.78;101364.11;1619392;87;21934;-41
2020/12/10 08:01:05;;;;;;;13.37;8.03;;;;;;;-1.60;59.68;101355.37;1800402;78;22852;-46
2020/12/10 08:03:53;;;;;;;13.93;9.70;;;;;;;-1.68;59.52;101354.46;1756730;80;21160;-42
2020/12/10 08:06:21;;;;;;;14.53;8.63;;;;;;;-1.70;59.52;101355.31;1774911;78;21275;-42
2020/12/10 08:08:56;;;;;;;11.27;7.27;;;;;;;-1.75;59.78;101353.54;1780039;79;21540;-41
2020/12/10 08:11:19;;;;;;;10.67;6.97;;;;;;;-1.77;59.72;101360.94;1784488;79;21130;-44
2020/12/10 08:13:59;;;;;;;10.70;7.43;;;;;;;-1.78;59.46;101358.76;1742184;80;21166;-45
2020/12/10 08:16:46;;;;;;;13.43;7.97;;;;;;;-1.78;59.45;101360.50;1727816;81;21119;-42
2020/12/10 08:19:20;;;;;;;13.90;7.83;;;;;;;-1.81;59.44;101343.05;1724634;81;21183;-43
2020/12/10 08:21:49;;;;;;;13.23;6.93;;;;;;;-1.85;59.36;101346.94;1726286;81;21153;-43
2020/12/10 08:24:44;;;;;;;11.10;6.90;;;;;;;-1.88;59.51;101337.78;1736415;80;21118;-44
2020/12/10 08:27:13;;;;;;;15.27;8.13;;;;;;;-1.90;59.45;101334.27;1724622;82;21158;-42
2020/12/10 08:30:02;;;;;;;12.17;8.07;;;;;;;-1.92;59.38;101332.08;1751742;80;21138;-42
2020/12/10 08:32:29;;;;;;;14.63;8.40;;;;;;;-1.95;59.52;101330.31;1722410;81;21460;-45
2020/12/10 08:35:05;;;;;;;13.77;7.43;;;;;;;-1.96;59.44;101331.20;1706019;82;21284;-39
2020/12/10 08:37:39;;;;;;;16.17;9.13;;;;;;;-1.99;59.79;101329.84;1719982;81;21154;-41
2020/12/10 08:40:07;;;;;;;13.47;8.20;;;;;;;-2.01;59.96;101333.77;1722173;81;21261;-44
2020/12/10 08:42:35;;;;;;;15.70;8.23;;;;;;;-1.99;59.88;101333.36;1723672;81;21092;-42
2020/12/10 08:45:03;;;;;;;13.40;7.60;;;;;;;-1.99;59.98;101337.69;1698085;82;21131;-41
2020/12/10 08:47:32;;;;;;;16.03;8.40;;;;;;;-1.98;59.99;101328.56;1717893;81;21456;-41
2020/12/10 08:50:29;;;;;;;16.40;8.70;;;;;;;-1.98;60.13;101325.95;1722623;81;21092;-43
2020/12/10 08:53:08;;;;;;;11.90;7.97;;;;;;;-1.98;60.16;101318.10;1719910;81;21152;-42
2020/12/10 08:55:41;;;;;;;13.23;8.17;;;;;;;-1.96;60.03;101317.69;1717578;82;21173;-44
2020/12/10 08:58:15;;;;;;;15.53;8.37;;;;;;;-1.96;60.03;101315.51;1711576;82;21156;-44
2020/12/10 09:00:43;;;;;;;13.87;8.17;;;;;;;-1.96;60.19;101316.38;1713956;83;21182;-37
2020/12/10 09:03:11;;;;;;;15.97;8.67;;;;;;;-1.95;60.32;101309.41;1708391;83;21192;-41
2020/12/10 09:05:38;;;;;;;15.43;9.27;;;;;;;-1.93;60.43;101310.73;1711326;83;21150;-41
2020/12/10 09:08:06;;;;;;;13.23;9.07;;;;;;;-1.93;60.52;101303.75;1707720;83;21154;-42
2020/12/10 09:10:33;;;;;;;13.30;8.20;;;;;;;-1.91;60.60;101301.16;1722840;81;21138;-45
2020/12/10 09:13:01;;;;;;;12.87;8.13;;;;;;;-1.88;60.47;101304.66;1707387;83;21143;-42
2020/12/10 09:15:30;;;;;;;14.53;8.17;;;;;;;-1.85;60.58;101298.56;1704539;82;21747;-40
2020/12/10 09:17:58;;;;;;;14.43;8.87;;;;;;;-1.83;60.49;101300.32;1702997;83;21142;-41
2020/12/10 09:20:25;;;;;;;16.83;8.67;;;;;;;-1.84;60.53;101298.99;1709587;82;21161;-41
2020/12/10 09:22:53;;;;;;;17.80;9.43;;;;;;;-1.83;60.57;101299.45;1727667;81;21131;-40
2020/12/10 09:25:20;;;;;;;12.93;8.10;;;;;;;-1.82;60.67;101295.96;1728817;81;21169;-44
2020/12/10 09:27:48;;;;;;;15.13;8.37;;;;;;;-1.82;60.67;101290.28;1724759;82;21276;-42
2020/12/10 09:30:15;;;;;;;17.50;8.80;;;;;;;-1.83;60.69;101296.84;1699962;83;21161;-42
2020/12/10 09:32:43;;;;;;;12.87;7.90;;;;;;;-1.83;60.81;101297.70;1700386;83;21214;-41
2020/12/10 09:35:12;;;;;;;13.30;8.00;;;;;;;-1.80;61.11;101300.33;1714253;82;21169;-43
2020/12/10 09:37:40;;;;;;;14.97;9.00;;;;;;;-1.79;61.22;101296.87;1708833;83;21634;-44
2020/12/10 09:40:10;;;;;;;13.53;8.47;;;;;;;-1.80;61.32;101296.41;1727823;81;21637;-38
2020/12/10 09:42:40;;;;;;;13.10;7.77;;;;;;;-1.78;61.48;101284.22;1701209;83;21130;-43
2020/12/10 09:45:10;;;;;;;15.27;8.63;;;;;;;-1.76;61.67;101282.48;1712371;82;21146;-43
2020/12/10 09:47:37;;;;;;;14.83;8.60;;;;;;;-1.72;61.57;101282.50;1710651;82;21150;-41
2020/12/10 09:50:07;;;;;;;12.73;7.47;;;;;;;-1.70;61.71;101289.92;1700493;83;21178;-40
2020/12/10 09:52:39;;;;;;;11.47;7.67;;;;;;;-1.69;61.57;101306.91;1703210;82;21609;-42
2020/12/10 09:55:10;;;;;;;12.80;8.53;;;;;;;-1.71;61.64;101312.59;1704207;83;21574;-43
2020/12/10 09:57:33;;;;;;;13.90;7.90;;;;;;;-1.72;61.82;101304.29;1698989;83;21111;-44
2020/12/10 10:00:05;;;;;;;13.17;8.23;;;;;;;-1.73;61.91;101299.94;1720641;82;21193;-43
2020/12/10 10:02:34;;;;;;;15.13;8.67;;;;;;;-1.73;61.94;101292.09;1673809;84;21606;-42
2020/12/10 10:05:02;;;;;;;14.43;8.33;;;;;;;-1.72;62.19;101293.83;1690140;83;21618;-40
2020/12/10 10:07:29;;;;;;;15.17;7.97;;;;;;;-1.70;62.27;101288.17;1695894;83;21193;-43
2020/12/10 10:09:57;;;;;;;13.23;8.23;;;;;;;-1.67;62.26;101284.70;1689075;83;21602;-42
2020/12/10 10:12:26;;;;;;;13.77;7.43;;;;;;;-1.67;62.43;101294.72;1694150;83;21118;-44
2020/12/10 10:14:55;;;;;;;13.77;9.13;;;;;;;-1.66;62.44;101291.26;1691979;83;21732;-42
2020/12/10 10:17:23;;;;;;;16.10;8.77;;;;;;;-1.63;62.61;101287.34;1692821;83;21304;-42
2020/12/10 10:19:51;;;;;;;13.93;8.40;;;;;;;-1.61;62.62;101289.54;1684923;83;21162;-42
2020/12/10 10:22:19;;;;;;;15.93;10.60;;;;;;;-1.57;62.63;101282.13;1679518;83;21147;-44
2020/12/10 10:24:46;;;;;;;12.23;8.13;;;;;;;-1.54;62.60;101270.79;1694870;83;21609;-47
2020/12/10 10:27:14;;;;;;;14.10;8.60;;;;;;;-1.55;62.65;101272.54;1693920;83;21598;-44
2020/12/10 10:29:41;;;;;;;14.20;8.00;;;;;;;-1.55;62.67;101282.14;1689646;83;21153;-45
2020/12/10 10:32:09;;;;;;;18.00;9.10;;;;;;;-1.52;62.74;101278.22;1693795;83;21624;-46
2020/12/10 10:34:37;;;;;;;12.20;8.30;;;;;;;-1.50;62.76;101283.47;1691313;83;21173;-50
2020/12/10 10:37:05;;;;;;;15.43;8.87;;;;;;;-1.50;62.83;101264.72;1691115;83;21173;-48
2020/12/10 10:39:33;;;;;;;16.93;9.63;;;;;;;-1.47;62.93;101265.16;1693414;83;21382;-50
2020/12/10 10:42:01;;;;;;;16.47;8.90;;;;;;;-1.46;62.96;101259.05;1689765;83;21146;-45
2020/12/10 10:44:29;;;;;;;17.67;9.57;;;;;;;-1.46;62.99;101262.56;1695865;84;21203;-46
2020/12/10 10:46:56;;;;;;;16.67;10.10;;;;;;;-1.45;63.15;101257.75;1695895;83;21121;-46
2020/12/10 10:49:24;;;;;;;15.90;9.27;;;;;;;-1.45;63.11;101262.98;1692750;83;21162;-43
2020/12/10 10:51:51;;;;;;;15.53;8.77;;;;;;;-1.47;63.18;101252.94;1691690;83;21158;-43
2020/12/10 10:54:19;;;;;;;14.27;9.10;;;;;;;-1.46;63.32;101249.48;1688921;83;21173;-43
2020/12/10 10:56:47;;;;;;;16.23;9.47;;;;;;;-1.45;63.27;101258.19;1692033;83;21138;-41
2020/12/10 10:59:17;;;;;;;13.87;7.77;;;;;;;-1.45;63.46;101247.73;1692929;83;21137;-43
2020/12/10 11:01:53;;;;;;;19.47;10.60;;;;;;;-1.44;63.46;101257.31;1703001;83;21205;-41
2020/12/10 11:04:25;;;;;;;19.07;10.27;;;;;;;-1.41;63.57;101258.21;1713314;83;21355;-44
2020/12/10 11:06:52;;;;;;;15.73;9.00;;;;;;;-1.40;63.58;101255.16;1711682;83;21173;-41
2020/12/10 11:09:20;;;;;;;17.77;10.00;;;;;;;-1.37;63.68;101267.80;1725647;82;21566;-41
2020/12/10 11:11:48;;;;;;;18.07;10.00;;;;;;;-1.36;63.79;101271.28;1713530;82;21291;-44
2020/12/10 11:14:16;;;;;;;16.83;9.43;;;;;;;-1.35;63.82;101275.67;1670150;83;21158;-43
2020/12/10 11:16:51;;;;;;;17.43;10.30;;;;;;;-1.34;63.89;101262.56;1699817;82;21674;-42
2020/12/10 11:19:18;;;;;;;19.90;11.53;;;;;;;-1.33;63.95;101258.23;1708827;83;21705;-39
2020/12/10 11:21:46;;;;;;;17.20;11.00;;;;;;;-1.35;64.07;101258.66;1710100;83;21174;-41
2020/12/10 11:24:14;;;;;;;19.60;9.93;;;;;;;-1.35;64.24;101250.36;1712089;83;21664;-45
2020/12/10 11:26:41;;;;;;;17.43;9.97;;;;;;;-1.34;64.38;101251.23;1708201;83;21165;-40
2020/12/10 11:29:10;;;;;;;23.77;11.97;;;;;;;-1.36;64.62;101245.11;1709663;83;21977;-45
2020/12/10 11:31:37;;;;;;;21.17;11.07;;;;;;;-1.38;64.83;101241.20;1709189;83;21153;-41
2020/12/10 11:34:05;;;;;;;18.23;11.03;;;;;;;-1.42;65.00;101236.81;1709780;83;21154;-44
2020/12/10 11:36:32;;;;;;;17.93;11.47;;;;;;;-1.38;65.17;101232.48;1710283;83;21186;-42